createdAt,value
2022-09-23T00:01:11.718Z,4.45
2022-09-23T00:03:47.650Z,4.38
2022-09-23T00:06:23.491Z,5.63
2022-09-23T00:08:52.275Z,4.78
2022-09-23T00:11:22.760Z,7.95
2022-09-23T00:13:52.364Z,3.97
2022-09-23T00:16:26.087Z,5.78
2022-09-23T00:18:53.235Z,5.10
2022-09-23T00:21:22.026Z,2.70
2022-09-23T00:23:50.424Z,3.20
2022-09-23T00:26:20.611Z,3.78
2022-09-23T00:28:49.005Z,3.33
2022-09-23T00:31:23.517Z,2.17
2022-09-23T00:33:59.937Z,3.13
2022-09-23T00:36:28.860Z,4.82
2022-09-23T00:38:56.115Z,3.67
2022-09-23T00:41:23.857Z,5.05
2022-09-23T00:44:02.015Z,5.50
2022-09-23T00:46:35.687Z,5.22
2022-09-23T00:49:17.957Z,5.72
2022-09-23T00:51:54.358Z,4.03
2022-09-23T00:54:24.696Z,7.13
2022-09-23T00:56:52.012Z,4.15
2022-09-23T00:59:21.041Z,4.95
2022-09-23T01:01:50.239Z,6.70
2022-09-23T01:04:17.349Z,5.53
2022-09-23T01:06:44.649Z,5.75
2022-09-23T01:09:11.718Z,4.20
2022-09-23T01:12:04.535Z,7.03
2022-09-23T01:14:48.737Z,7.38
2022-09-23T01:17:36.879Z,4.07
2022-09-23T01:20:07.110Z,7.50
2022-09-23T01:22:49.859Z,8.43
2022-09-23T01:25:16.947Z,6.43
2022-09-23T01:27:58.329Z,7.78
2022-09-23T01:30:31.498Z,4.70
2022-09-23T01:33:20.025Z,5.15
2022-09-23T01:36:23.984Z,5.57
2022-09-23T01:39:13.487Z,9.02
2022-09-23T01:42:09.954Z,4.03
2022-09-23T01:44:43.225Z,5.95
2022-09-23T01:47:23.316Z,5.43
2022-09-23T01:49:59.093Z,7.93
2022-09-23T01:52:44.960Z,8.13
2022-09-23T01:55:38.523Z,5.45
2022-09-23T01:58:12.787Z,4.13
2022-09-23T02:00:45.584Z,5.45
2022-09-23T02:03:28.432Z,4.35
2022-09-23T02:06:10.180Z,6.63
2022-09-23T02:08:58.535Z,7.30
2022-09-23T02:11:25.739Z,4.97
2022-09-23T02:14:02.943Z,7.30
2022-09-23T02:16:36.264Z,6.57
2022-09-23T02:21:59.067Z,7.22
2022-09-23T02:24:32.276Z,8.30
2022-09-23T02:27:12.252Z,7.00
2022-09-23T02:29:57.460Z,7.70
2022-09-23T02:32:53.915Z,7.60
2022-09-23T02:35:44.492Z,5.20
2022-09-23T02:38:37.714Z,5.57
2022-09-23T02:41:11.110Z,5.25
2022-09-23T02:46:25.201Z,6.13
2022-09-23T02:48:57.476Z,5.10
2022-09-23T02:51:25.971Z,6.00
2022-09-23T02:53:56.541Z,8.80
2022-09-23T02:56:23.834Z,8.23
2022-09-23T02:58:54.520Z,7.35
2022-09-23T03:01:39.871Z,6.68
2022-09-23T03:04:18.961Z,6.60
2022-09-23T03:07:08.191Z,5.10
2022-09-23T03:10:07.430Z,6.63
2022-09-23T03:12:36.367Z,5.18
2022-09-23T03:15:57.438Z,6.50
2022-09-23T03:18:39.975Z,4.05
2022-09-23T03:21:28.483Z,7.97
2022-09-23T03:24:01.113Z,6.75
2022-09-23T03:26:32.408Z,5.73
2022-09-23T03:29:04.259Z,6.68
2022-09-23T03:31:33.756Z,8.45
2022-09-23T03:34:06.049Z,6.45
2022-09-23T03:36:54.051Z,4.72
2022-09-23T03:39:33.444Z,5.82
2022-09-23T03:42:07.017Z,5.35
2022-09-23T03:44:39.275Z,4.93
2022-09-23T03:47:07.104Z,6.65
2022-09-23T03:49:39.796Z,5.05
2022-09-23T03:52:07.629Z,6.05
2022-09-23T03:54:34.906Z,7.97
2022-09-23T03:57:03.271Z,5.55
2022-09-23T03:59:31.274Z,6.90
2022-09-23T04:02:01.024Z,5.78
2022-09-23T04:04:29.375Z,8.93
2022-09-23T04:06:57.669Z,4.50
2022-09-23T04:09:24.904Z,4.85
2022-09-23T04:11:53.717Z,6.47
2022-09-23T04:14:23.175Z,6.55
2022-09-23T04:16:51.328Z,8.48
2022-09-23T04:19:19.765Z,8.25
2022-09-23T04:21:47.851Z,10.73
2022-09-23T04:24:16.714Z,8.65
2022-09-23T04:26:44.408Z,6.30
2022-09-23T04:29:12.358Z,7.55
2022-09-23T04:31:39.987Z,7.45
2022-09-23T04:34:07.932Z,7.93
2022-09-23T04:36:35.545Z,7.75
2022-09-23T04:39:03.476Z,6.28
2022-09-23T04:41:30.877Z,4.75
2022-09-23T04:43:58.114Z,6.43
2022-09-23T04:46:26.248Z,6.28
2022-09-23T04:48:53.765Z,4.13
2022-09-23T04:51:23.018Z,7.13
2022-09-23T04:53:52.088Z,6.40
2022-09-23T04:56:22.559Z,4.50
2022-09-23T04:58:51.159Z,5.55
2022-09-23T05:01:25.050Z,4.75
2022-09-23T05:03:54.543Z,10.13
2022-09-23T05:06:22.501Z,9.05
2022-09-23T05:08:54.948Z,7.38
2022-09-23T05:11:22.842Z,12.82
2022-09-23T05:13:51.719Z,6.10
2022-09-23T05:16:19.913Z,4.07
2022-09-23T05:18:48.613Z,8.32
2022-09-23T05:21:19.908Z,7.78
2022-09-23T05:23:55.566Z,6.57
2022-09-23T05:26:25.657Z,6.35
2022-09-23T05:28:54.260Z,7.47
2022-09-23T05:31:26.775Z,8.85
2022-09-23T05:33:59.727Z,10.05
2022-09-23T05:36:28.823Z,9.57
2022-09-23T05:38:59.527Z,7.15
2022-09-23T05:41:27.630Z,5.82
2022-09-23T05:43:56.197Z,7.05
2022-09-23T05:46:28.825Z,4.65
2022-09-23T05:49:02.186Z,5.35
2022-09-23T05:51:31.659Z,7.00
2022-09-23T05:54:00.400Z,5.97
2022-09-23T05:56:28.750Z,6.70
2022-09-23T05:58:58.608Z,6.10
2022-09-23T06:01:28.537Z,6.72
2022-09-23T06:03:57.535Z,9.10
2022-09-23T06:06:37.026Z,11.07
2022-09-23T06:09:05.622Z,4.57
2022-09-23T06:11:34.576Z,5.95
2022-09-23T06:14:02.673Z,5.97
2022-09-23T06:16:32.661Z,5.90
2022-09-23T06:19:06.907Z,7.90
2022-09-23T06:21:39.240Z,4.63
2022-09-23T06:24:08.150Z,6.93
2022-09-23T06:26:38.024Z,6.15
2022-09-23T06:29:12.245Z,5.70
2022-09-23T06:31:41.340Z,11.18
2022-09-23T06:34:14.424Z,8.57
2022-09-23T06:39:16.712Z,7.07
2022-09-23T06:41:45.577Z,8.13
2022-09-23T06:44:14.594Z,5.55
2022-09-23T06:46:41.935Z,7.40
2022-09-23T06:49:09.500Z,5.38
2022-09-23T06:51:37.512Z,6.60
2022-09-23T06:54:05.044Z,7.20
2022-09-23T06:56:36.321Z,7.65
2022-09-23T06:59:07.219Z,8.05
2022-09-23T07:01:35.064Z,7.35
2022-09-23T07:04:02.528Z,9.65
2022-09-23T07:06:29.625Z,9.48
2022-09-23T07:08:59.456Z,10.00
2022-09-23T07:11:27.207Z,6.30
2022-09-23T07:13:54.345Z,6.03
2022-09-23T07:16:21.596Z,7.88
2022-09-23T07:18:48.873Z,8.13
2022-09-23T07:21:18.627Z,6.60
2022-09-23T07:23:47.900Z,7.63
2022-09-23T07:26:16.709Z,9.18
2022-09-23T07:28:44.053Z,7.03
2022-09-23T07:31:14.040Z,9.75
2022-09-23T07:33:44.613Z,6.57
2022-09-23T07:36:14.950Z,7.25
2022-09-23T07:38:45.456Z,13.32
2022-09-23T07:41:15.876Z,7.10
2022-09-23T07:43:44.347Z,8.13
2022-09-23T07:46:15.273Z,7.13
2022-09-23T07:48:43.591Z,7.13
2022-09-23T07:51:14.106Z,6.95
2022-09-23T07:53:41.273Z,7.20
2022-09-23T07:56:08.366Z,9.40
2022-09-23T07:58:35.673Z,8.73
2022-09-23T08:01:07.904Z,7.68
2022-09-23T08:03:35.395Z,6.82
2022-09-23T08:06:13.522Z,11.88
2022-09-23T08:08:45.017Z,7.68
2022-09-23T08:11:14.439Z,16.67
2022-09-23T08:13:42.020Z,9.45
2022-09-23T08:16:10.272Z,11.45
2022-09-23T08:18:37.553Z,8.35
2022-09-23T08:21:04.790Z,9.02
2022-09-23T08:23:33.764Z,6.03
2022-09-23T08:26:03.495Z,14.20
2022-09-23T08:28:33.959Z,16.52
2022-09-23T08:31:01.430Z,13.82
2022-09-23T08:33:28.728Z,8.32
2022-09-23T08:36:01.042Z,11.02
2022-09-23T08:38:29.279Z,21.85
2022-09-23T08:41:13.788Z,10.73
2022-09-23T08:43:48.218Z,12.48
2022-09-23T08:46:22.325Z,18.38
2022-09-23T08:48:49.903Z,10.68
2022-09-23T08:51:29.564Z,18.20
2022-09-23T08:53:58.503Z,23.45
2022-09-23T08:56:26.098Z,12.73
2022-09-23T08:59:14.986Z,25.70
2022-09-23T09:01:46.383Z,17.23
2022-09-23T09:04:19.599Z,17.35
2022-09-23T09:10:16.889Z,17.05
2022-09-23T09:13:00.541Z,14.65
2022-09-23T09:15:29.210Z,11.35
2022-09-23T09:18:02.601Z,22.52
2022-09-23T09:20:57.452Z,19.88
2022-09-23T09:23:32.340Z,19.20
2022-09-23T09:26:01.846Z,10.35
2022-09-23T09:28:34.176Z,15.57
2022-09-23T09:31:02.969Z,16.63
2022-09-23T09:34:03.924Z,9.68
2022-09-23T09:36:53.352Z,11.05
2022-09-23T09:39:24.165Z,9.82
2022-09-23T09:41:57.816Z,18.10
2022-09-23T09:44:48.461Z,5.78
2022-09-23T09:47:47.062Z,7.22
2022-09-23T09:50:22.310Z,10.43
2022-09-23T09:52:49.655Z,16.23
2022-09-23T09:55:29.311Z,9.27
2022-09-23T09:58:04.305Z,15.68
2022-09-23T10:00:31.415Z,10.95
2022-09-23T10:03:03.268Z,11.70
2022-09-23T10:05:47.566Z,14.35
2022-09-23T10:08:35.142Z,13.82
2022-09-23T10:11:13.239Z,13.07
2022-09-23T10:13:40.510Z,18.48
2022-09-23T10:16:08.368Z,15.73
2022-09-23T10:18:48.503Z,16.25
2022-09-23T10:21:23.113Z,16.50
2022-09-23T10:23:58.378Z,17.33
2022-09-23T10:26:34.678Z,16.45
2022-09-23T10:29:21.007Z,10.68
2022-09-23T10:31:48.275Z,12.75
2022-09-23T10:34:28.147Z,14.70
2022-09-23T10:37:17.253Z,8.57
2022-09-23T10:40:03.205Z,10.70
2022-09-23T10:43:16.777Z,15.38
2022-09-23T10:46:08.037Z,8.65
2022-09-23T10:49:10.255Z,15.18
2022-09-23T10:52:09.801Z,14.40
2022-09-23T10:55:00.255Z,15.07
2022-09-23T10:57:49.668Z,10.70
2022-09-23T11:00:28.613Z,14.77
2022-09-23T11:03:21.122Z,10.02
2022-09-23T11:06:07.031Z,10.50
2022-09-23T11:09:09.006Z,12.02
2022-09-23T11:11:55.845Z,13.40
2022-09-23T11:14:54.497Z,12.27
2022-09-23T11:17:35.626Z,10.93
2022-09-23T11:20:09.789Z,12.73
2022-09-23T11:22:59.782Z,8.48
2022-09-23T11:25:32.451Z,12.10
2022-09-23T11:28:20.733Z,12.25
2022-09-23T11:31:02.083Z,11.65
2022-09-23T11:33:56.211Z,11.50
2022-09-23T11:36:30.722Z,17.20
2022-09-23T11:39:01.738Z,17.60
2022-09-23T11:41:37.498Z,20.17
2022-09-23T11:44:33.032Z,17.17
2022-09-23T11:47:21.046Z,14.00
2022-09-23T11:49:56.421Z,13.38
2022-09-23T11:52:40.178Z,12.25
2022-09-23T11:55:22.900Z,7.65
2022-09-23T11:58:03.543Z,7.47
2022-09-23T12:00:49.648Z,11.90
2022-09-23T12:03:47.366Z,10.10
2022-09-23T12:06:27.096Z,9.35
2022-09-23T12:08:58.069Z,8.43
2022-09-23T12:11:59.326Z,8.85
2022-09-23T12:14:38.859Z,6.50
2022-09-23T12:17:24.773Z,11.35
2022-09-23T12:19:51.992Z,8.27
2022-09-23T12:22:40.575Z,5.38
2022-09-23T12:25:36.303Z,6.25
2022-09-23T12:28:18.621Z,6.18
2022-09-23T12:30:47.698Z,6.65
2022-09-23T12:33:27.921Z,6.50
2022-09-23T12:36:03.220Z,6.15
2022-09-23T12:38:36.628Z,6.65
2022-09-23T12:41:25.637Z,5.47
2022-09-23T12:44:19.100Z,5.82
2022-09-23T12:49:28.431Z,6.35
2022-09-23T12:52:14.205Z,6.53
2022-09-23T12:54:44.884Z,8.85
2022-09-23T12:57:15.021Z,5.93
2022-09-23T13:00:00.546Z,9.25
2022-09-23T13:02:33.390Z,6.97
2022-09-23T13:05:40.726Z,9.45
2022-09-23T13:08:18.763Z,13.45
2022-09-23T13:10:58.766Z,9.70
2022-09-23T13:13:29.893Z,5.15
2022-09-23T13:16:21.889Z,7.60
2022-09-23T13:18:56.616Z,9.35
2022-09-23T13:21:46.033Z,8.80
2022-09-23T13:24:13.080Z,7.07
2022-09-23T13:26:50.161Z,5.28
2022-09-23T13:29:33.351Z,7.60
2022-09-23T13:32:03.093Z,4.07
2022-09-23T13:34:34.952Z,7.68
2022-09-23T13:37:22.389Z,8.80
2022-09-23T13:39:50.515Z,6.97
2022-09-23T13:42:29.943Z,4.75
2022-09-23T13:45:00.623Z,5.72
2022-09-23T13:47:30.515Z,8.07
2022-09-23T13:49:58.046Z,5.60
2022-09-23T13:52:31.927Z,8.23
2022-09-23T13:54:59.296Z,6.85
2022-09-23T13:57:32.167Z,5.30
2022-09-23T14:00:21.249Z,4.28
2022-09-23T14:02:48.380Z,8.75
2022-09-23T14:05:23.957Z,7.22
2022-09-23T14:07:53.160Z,5.50
2022-09-23T14:10:25.116Z,6.80
2022-09-23T14:12:54.624Z,8.82
2022-09-23T14:15:23.057Z,8.82
2022-09-23T14:17:53.891Z,6.05
2022-09-23T14:20:23.447Z,6.90
2022-09-23T14:23:07.221Z,4.45
2022-09-23T14:25:34.818Z,7.30
2022-09-23T14:28:02.455Z,6.70
2022-09-23T14:30:30.222Z,4.82
2022-09-23T14:33:00.395Z,6.70
2022-09-23T14:35:40.607Z,8.50
2022-09-23T14:38:26.613Z,5.07
2022-09-23T14:41:15.743Z,4.68
2022-09-23T14:44:00.693Z,5.68
2022-09-23T14:46:30.881Z,5.93
2022-09-23T14:49:17.880Z,8.80
2022-09-23T14:51:57.873Z,5.90
2022-09-23T14:54:35.957Z,10.82
2022-09-23T14:57:22.960Z,9.35
2022-09-23T14:59:59.420Z,6.40
2022-09-23T15:02:31.612Z,7.15
2022-09-23T15:05:21.355Z,5.40
2022-09-23T15:07:51.833Z,6.60
2022-09-23T15:10:37.719Z,4.60
2022-09-23T15:13:09.198Z,5.70
2022-09-23T15:15:36.660Z,3.38
2022-09-23T15:18:06.887Z,4.55
2022-09-23T15:20:35.042Z,4.25
2022-09-23T15:23:02.228Z,4.25
2022-09-23T15:25:35.759Z,2.95
2022-09-23T15:28:09.000Z,4.55
2022-09-23T15:30:37.053Z,4.20
2022-09-23T15:33:04.983Z,5.55
2022-09-23T15:35:32.963Z,6.45
2022-09-23T15:38:03.119Z,4.35
2022-09-23T15:40:36.135Z,5.03
2022-09-23T15:45:54.836Z,4.25
2022-09-23T15:48:32.711Z,2.88
2022-09-23T15:51:05.094Z,3.20
2022-09-23T15:53:32.223Z,2.25
2022-09-23T15:55:59.397Z,3.47
2022-09-23T15:58:27.885Z,2.42
2022-09-23T16:00:57.270Z,4.35
2022-09-23T16:03:28.883Z,6.63
2022-09-23T16:06:01.377Z,3.78
2022-09-23T16:08:30.088Z,7.78
2022-09-23T16:10:57.172Z,3.58
2022-09-23T16:13:24.274Z,5.88
2022-09-23T16:15:51.531Z,4.53
2022-09-23T16:18:18.694Z,4.50
2022-09-23T16:20:46.553Z,4.95
2022-09-23T16:23:38.920Z,3.75
2022-09-23T16:26:27.043Z,5.28
2022-09-23T16:28:56.316Z,7.38
2022-09-23T16:31:29.927Z,3.63
2022-09-23T16:33:58.014Z,4.07
2022-09-23T16:36:33.699Z,4.10
2022-09-23T16:39:04.547Z,5.15
2022-09-23T16:41:32.211Z,6.57
2022-09-23T16:44:04.759Z,3.78
2022-09-23T16:46:32.565Z,6.40
2022-09-23T16:49:00.567Z,5.80
2022-09-23T16:51:39.070Z,5.93
2022-09-23T16:54:13.433Z,4.90
2022-09-23T16:56:46.605Z,6.95
2022-09-23T16:59:14.592Z,9.88
2022-09-23T17:02:00.853Z,9.20
2022-09-23T17:04:28.438Z,11.10
2022-09-23T17:06:56.840Z,10.27
2022-09-23T17:09:28.709Z,9.93
2022-09-23T17:12:01.389Z,8.93
2022-09-23T17:14:31.640Z,9.75
2022-09-23T17:16:59.299Z,9.75
2022-09-23T17:19:26.580Z,8.10
2022-09-23T17:21:54.562Z,10.23
2022-09-23T17:24:21.775Z,9.30
2022-09-23T17:26:52.837Z,11.82
2022-09-23T17:29:21.722Z,9.27
2022-09-23T17:31:49.200Z,9.18
2022-09-23T17:34:18.986Z,12.35
2022-09-23T17:36:49.780Z,10.30
2022-09-23T17:39:17.875Z,8.00
2022-09-23T17:41:45.632Z,9.90
2022-09-23T17:44:13.151Z,9.02
2022-09-23T17:46:40.269Z,8.23
2022-09-23T17:49:08.628Z,9.80
2022-09-23T17:51:35.839Z,8.48
2022-09-23T17:54:02.922Z,8.05
2022-09-23T17:56:31.000Z,9.90
2022-09-23T17:59:02.127Z,10.25
2022-09-23T18:01:30.034Z,7.68
2022-09-23T18:03:59.816Z,6.43
2022-09-23T18:06:29.477Z,9.55
2022-09-23T18:08:56.763Z,11.48
2022-09-23T18:11:26.215Z,10.40
2022-09-23T18:13:55.818Z,9.32
2022-09-23T18:16:29.409Z,5.60
2022-09-23T18:19:01.918Z,7.47
2022-09-23T18:21:37.523Z,12.55
2022-09-23T18:24:34.278Z,11.68
2022-09-23T18:26:56.555Z,8.93
2022-09-23T18:29:24.825Z,10.37
2022-09-23T18:31:54.413Z,9.25
2022-09-23T18:34:22.713Z,15.35
2022-09-23T18:36:50.965Z,13.70
2022-09-23T18:39:19.556Z,8.15
2022-09-23T18:41:49.345Z,8.98
2022-09-23T18:44:17.599Z,8.95
2022-09-23T18:46:46.495Z,7.53
2022-09-23T18:49:32.706Z,6.93
2022-09-23T18:52:04.295Z,7.55
2022-09-23T18:54:32.616Z,4.13
2022-09-23T18:57:00.913Z,7.10
2022-09-23T18:59:33.581Z,6.32
2022-09-23T19:02:02.098Z,6.97
2022-09-23T19:04:30.224Z,4.05
2022-09-23T19:06:59.443Z,4.90
2022-09-23T19:09:28.235Z,5.10
2022-09-23T19:11:56.990Z,7.35
2022-09-23T19:14:24.344Z,5.35
2022-09-23T19:16:51.430Z,4.55
2022-09-23T19:19:19.296Z,3.38
2022-09-23T19:21:47.152Z,6.05
2022-09-23T19:24:20.375Z,4.82
2022-09-23T19:26:48.887Z,3.92
2022-09-23T19:29:22.197Z,5.07
2022-09-23T19:31:50.080Z,4.28
2022-09-23T19:34:18.382Z,5.95
2022-09-23T19:36:47.918Z,8.95
2022-09-23T19:39:21.291Z,4.13
2022-09-23T19:41:49.159Z,3.22
2022-09-23T19:44:16.782Z,5.90
2022-09-23T19:46:45.910Z,6.80
2022-09-23T19:49:13.567Z,5.50
2022-09-23T19:51:41.553Z,4.80
2022-09-23T19:54:09.400Z,7.05
2022-09-23T19:56:38.865Z,3.13
2022-09-23T19:59:09.484Z,6.85
2022-09-23T20:01:37.551Z,5.07
2022-09-23T20:04:10.303Z,5.32
2022-09-23T20:06:41.928Z,4.38
2022-09-23T20:09:10.509Z,4.05
2022-09-23T20:11:38.944Z,6.13
2022-09-23T20:14:07.047Z,7.80
2022-09-23T20:16:37.421Z,3.03
2022-09-23T20:19:07.499Z,5.68
2022-09-23T20:21:35.616Z,10.50
2022-09-23T20:24:08.037Z,7.80
2022-09-23T20:26:54.244Z,6.97
2022-09-23T20:29:21.669Z,6.13
2022-09-23T20:31:49.712Z,2.83
2022-09-23T20:34:18.782Z,7.53
2022-09-23T20:36:45.916Z,4.10
2022-09-23T20:39:13.442Z,5.28
2022-09-23T20:41:40.795Z,3.75
2022-09-23T20:44:12.799Z,3.90
2022-09-23T20:46:46.982Z,2.60
2022-09-23T20:49:16.255Z,5.80
2022-09-23T20:51:43.878Z,6.13
2022-09-23T20:54:12.375Z,5.15
2022-09-23T20:56:40.012Z,3.65
2022-09-23T20:59:07.099Z,2.83
2022-09-23T21:01:36.655Z,5.97
2022-09-23T21:04:06.284Z,6.53
2022-09-23T21:06:37.627Z,2.60
2022-09-23T21:09:06.527Z,2.47
2022-09-23T21:11:34.059Z,4.03
2022-09-23T21:14:01.781Z,5.07
2022-09-23T21:16:29.976Z,5.32
2022-09-23T21:18:59.010Z,4.97
2022-09-23T21:21:26.825Z,6.72
2022-09-23T21:23:54.005Z,6.95
2022-09-23T21:26:26.408Z,3.70
2022-09-23T21:28:59.382Z,3.67
2022-09-23T21:31:33.848Z,3.28
2022-09-23T21:34:09.615Z,3.55
2022-09-23T21:36:39.049Z,4.82
2022-09-23T21:39:07.129Z,3.85
2022-09-23T21:41:34.793Z,3.67
2022-09-23T21:44:04.830Z,3.58
2022-09-23T21:46:34.006Z,5.57
2022-09-23T21:49:03.560Z,5.18
2022-09-23T21:51:40.883Z,5.20
2022-09-23T21:54:16.491Z,7.72
2022-09-23T21:56:44.879Z,3.03
2022-09-23T21:59:12.492Z,2.78
2022-09-23T22:01:44.923Z,5.68
2022-09-23T22:04:19.081Z,5.18
2022-09-23T22:06:46.736Z,3.85
2022-09-23T22:09:17.383Z,5.55
2022-09-23T22:12:03.344Z,5.18
2022-09-23T22:14:33.749Z,7.00
2022-09-23T22:17:04.260Z,5.75
2022-09-23T22:19:44.198Z,9.23
2022-09-23T22:22:17.773Z,4.65
2022-09-23T22:24:47.047Z,4.05
2022-09-23T22:27:16.745Z,4.50
2022-09-23T22:30:04.613Z,6.63
2022-09-23T22:32:40.862Z,7.07
2022-09-23T22:35:13.017Z,6.25
2022-09-23T22:37:40.156Z,5.70
2022-09-23T22:40:10.755Z,5.40
2022-09-23T22:42:38.200Z,4.45
2022-09-23T22:45:06.051Z,7.85
2022-09-23T22:47:37.938Z,3.92
2022-09-23T22:50:09.360Z,4.72
2022-09-23T22:52:37.130Z,4.00
2022-09-23T22:55:05.171Z,4.40
2022-09-23T22:57:32.239Z,5.47
2022-09-23T22:59:59.406Z,4.63
2022-09-23T23:02:26.558Z,5.95
2022-09-23T23:04:56.538Z,5.40
2022-09-23T23:07:23.633Z,5.07
2022-09-23T23:09:51.522Z,8.20
2022-09-23T23:12:20.619Z,6.40
2022-09-23T23:14:48.544Z,8.23
2022-09-23T23:17:15.948Z,4.05
2022-09-23T23:19:43.085Z,6.53
2022-09-23T23:22:10.296Z,5.80
2022-09-23T23:24:37.486Z,4.25
2022-09-23T23:27:04.718Z,7.57
2022-09-23T23:29:31.853Z,5.30
2022-09-23T23:31:58.937Z,6.50
2022-09-23T23:34:26.072Z,4.18
2022-09-23T23:36:55.370Z,4.38
2022-09-23T23:39:24.573Z,9.60
2022-09-23T23:41:56.608Z,5.60
2022-09-23T23:44:25.760Z,6.30
2022-09-23T23:46:54.262Z,7.68
2022-09-23T23:49:21.926Z,5.85
2022-09-23T23:51:49.312Z,8.13
2022-09-23T23:54:16.468Z,4.13
2022-09-23T23:56:44.067Z,5.13
2022-09-23T23:59:11.483Z,5.88
